sensor_id;sensor_type;location;lat;lon;timestamp;temperature;humidity
43338;DHT22;28933;52.492;13.434;2022-12-07T00:00:04;6.00;99.90
43338;DHT22;28933;52.492;13.434;2022-12-07T00:02:31;6.10;99.90
43338;DHT22;28933;52.492;13.434;2022-12-07T00:04:56;6.10;99.90
43338;DHT22;28933;52.492;13.434;2022-12-07T00:07:22;6.10;99.90
43338;DHT22;28933;52.492;13.434;2022-12-07T00:09:47;6.00;99.90
43338;DHT22;28933;52.492;13.434;2022-12-07T00:12:13;6.00;99.90
43338;DHT22;28933;52.492;13.434;2022-12-07T00:14:38;6.00;99.90
43338;DHT22;28933;52.492;13.434;2022-12-07T00:17:04;6.10;99.90
43338;DHT22;28933;52.492;13.434;2022-12-07T00:19:31;6.10;99.90
43338;DHT22;28933;52.492;13.434;2022-12-07T00:21:57;6.00;99.90
43338;DHT22;28933;52.492;13.434;2022-12-07T00:24:22;6.00;99.90
43338;DHT22;28933;52.492;13.434;2022-12-07T00:26:48;5.90;99.90
43338;DHT22;28933;52.492;13.434;2022-12-07T00:29:20;5.90;99.90
43338;DHT22;28933;52.492;13.434;2022-12-07T00:31:48;5.90;99.90
43338;DHT22;28933;52.492;13.434;2022-12-07T00:34:16;5.90;99.90
43338;DHT22;28933;52.492;13.434;2022-12-07T00:36:42;5.90;99.90
43338;DHT22;28933;52.492;13.434;2022-12-07T00:39:08;5.90;99.90
43338;DHT22;28933;52.492;13.434;2022-12-07T00:41:34;5.90;99.90
43338;DHT22;28933;52.492;13.434;2022-12-07T00:43:59;5.80;99.90
43338;DHT22;28933;52.492;13.434;2022-12-07T00:46:26;5.70;99.90
43338;DHT22;28933;52.492;13.434;2022-12-07T00:48:52;5.70;99.90
43338;DHT22;28933;52.492;13.434;2022-12-07T00:51:20;5.80;99.90
43338;DHT22;28933;52.492;13.434;2022-12-07T00:53:47;5.80;99.90
43338;DHT22;28933;52.492;13.434;2022-12-07T00:56:15;5.70;99.90
43338;DHT22;28933;52.492;13.434;2022-12-07T00:58:41;5.70;99.90
43338;DHT22;28933;52.492;13.434;2022-12-07T01:01:08;5.70;99.90
43338;DHT22;28933;52.492;13.434;2022-12-07T01:03:34;5.60;99.90
43338;DHT22;28933;52.492;13.434;2022-12-07T01:06:00;5.60;99.90
43338;DHT22;28933;52.492;13.434;2022-12-07T01:08:28;5.60;99.90
43338;DHT22;28933;52.492;13.434;2022-12-07T01:11:03;5.60;99.90
43338;DHT22;28933;52.492;13.434;2022-12-07T01:13:29;5.50;99.90
43338;DHT22;28933;52.492;13.434;2022-12-07T01:16:01;5.50;99.90
43338;DHT22;28933;52.492;13.434;2022-12-07T01:18:28;5.50;99.90
43338;DHT22;28933;52.492;13.434;2022-12-07T01:21:07;5.40;99.90
43338;DHT22;28933;52.492;13.434;2022-12-07T01:23:34;5.40;99.90
43338;DHT22;28933;52.492;13.434;2022-12-07T01:26:03;5.40;99.90
43338;DHT22;28933;52.492;13.434;2022-12-07T01:28:29;5.50;99.90
43338;DHT22;28933;52.492;13.434;2022-12-07T01:33:30;5.50;99.90
43338;DHT22;28933;52.492;13.434;2022-12-07T01:38:29;5.50;99.90
43338;DHT22;28933;52.492;13.434;2022-12-07T01:40:55;5.40;99.90
43338;DHT22;28933;52.492;13.434;2022-12-07T01:43:23;5.40;99.90
43338;DHT22;28933;52.492;13.434;2022-12-07T01:45:49;5.50;99.90
43338;DHT22;28933;52.492;13.434;2022-12-07T01:48:19;5.50;99.90
43338;DHT22;28933;52.492;13.434;2022-12-07T01:50:48;5.50;99.90
43338;DHT22;28933;52.492;13.434;2022-12-07T01:53:16;5.60;99.90
43338;DHT22;28933;52.492;13.434;2022-12-07T01:55:45;5.50;99.90
43338;DHT22;28933;52.492;13.434;2022-12-07T01:58:12;5.50;99.90
43338;DHT22;28933;52.492;13.434;2022-12-07T02:00:39;5.50;99.90
43338;DHT22;28933;52.492;13.434;2022-12-07T02:03:12;5.50;99.90
43338;DHT22;28933;52.492;13.434;2022-12-07T02:05:41;5.60;99.90
43338;DHT22;28933;52.492;13.434;2022-12-07T02:08:10;5.50;99.90
43338;DHT22;28933;52.492;13.434;2022-12-07T02:10:37;5.60;99.90
43338;DHT22;28933;52.492;13.434;2022-12-07T02:15:40;5.50;99.90
43338;DHT22;28933;52.492;13.434;2022-12-07T02:34:54;5.50;99.90
43338;DHT22;28933;52.492;13.434;2022-12-07T02:37:25;5.50;99.90
43338;DHT22;28933;52.492;13.434;2022-12-07T02:40:21;5.50;99.90
43338;DHT22;28933;52.492;13.434;2022-12-07T02:43:26;5.50;99.90
43338;DHT22;28933;52.492;13.434;2022-12-07T02:45:46;5.50;99.90
43338;DHT22;28933;52.492;13.434;2022-12-07T02:48:16;5.50;99.90
43338;DHT22;28933;52.492;13.434;2022-12-07T02:50:49;5.50;99.90
43338;DHT22;28933;52.492;13.434;2022-12-07T02:53:38;5.50;99.90
43338;DHT22;28933;52.492;13.434;2022-12-07T03:13:15;5.30;99.90
43338;DHT22;28933;52.492;13.434;2022-12-07T03:16:02;5.40;99.90
43338;DHT22;28933;52.492;13.434;2022-12-07T03:18:31;5.30;99.90
43338;DHT22;28933;52.492;13.434;2022-12-07T03:21:02;5.30;99.90
43338;DHT22;28933;52.492;13.434;2022-12-07T03:23:33;5.30;99.90
43338;DHT22;28933;52.492;13.434;2022-12-07T03:26:00;5.30;99.90
43338;DHT22;28933;52.492;13.434;2022-12-07T03:28:32;5.30;99.90
43338;DHT22;28933;52.492;13.434;2022-12-07T03:31:11;5.30;99.90
43338;DHT22;28933;52.492;13.434;2022-12-07T03:34:01;5.20;99.90
43338;DHT22;28933;52.492;13.434;2022-12-07T03:39:29;5.30;99.90
43338;DHT22;28933;52.492;13.434;2022-12-07T03:41:59;5.30;99.90
43338;DHT22;28933;52.492;13.434;2022-12-07T03:44:26;5.30;99.90
43338;DHT22;28933;52.492;13.434;2022-12-07T03:47:24;5.30;99.90
43338;DHT22;28933;52.492;13.434;2022-12-07T03:49:57;5.30;99.90
43338;DHT22;28933;52.492;13.434;2022-12-07T03:52:44;5.30;99.90
43338;DHT22;28933;52.492;13.434;2022-12-07T03:55:35;5.30;99.90
43338;DHT22;28933;52.492;13.434;2022-12-07T03:58:09;5.30;99.90
43338;DHT22;28933;52.492;13.434;2022-12-07T04:00:36;5.30;99.90
43338;DHT22;28933;52.492;13.434;2022-12-07T04:03:02;5.20;99.90
43338;DHT22;28933;52.492;13.434;2022-12-07T04:05:28;5.30;99.90
43338;DHT22;28933;52.492;13.434;2022-12-07T04:07:54;5.30;99.90
43338;DHT22;28933;52.492;13.434;2022-12-07T04:10:20;5.30;99.90
43338;DHT22;28933;52.492;13.434;2022-12-07T04:12:46;5.30;99.90
43338;DHT22;28933;52.492;13.434;2022-12-07T04:15:12;5.30;99.90
43338;DHT22;28933;52.492;13.434;2022-12-07T04:17:38;5.30;99.90
43338;DHT22;28933;52.492;13.434;2022-12-07T04:20:05;5.30;99.90
43338;DHT22;28933;52.492;13.434;2022-12-07T04:22:33;5.30;99.90
43338;DHT22;28933;52.492;13.434;2022-12-07T04:24:59;5.30;99.90
43338;DHT22;28933;52.492;13.434;2022-12-07T04:27:25;5.40;99.90
43338;DHT22;28933;52.492;13.434;2022-12-07T04:29:50;5.30;99.90
43338;DHT22;28933;52.492;13.434;2022-12-07T04:32:16;5.30;99.90
43338;DHT22;28933;52.492;13.434;2022-12-07T04:34:41;5.30;99.90
43338;DHT22;28933;52.492;13.434;2022-12-07T04:37:07;5.40;99.90
43338;DHT22;28933;52.492;13.434;2022-12-07T04:39:34;5.40;99.90
43338;DHT22;28933;52.492;13.434;2022-12-07T04:42:00;5.30;99.90
43338;DHT22;28933;52.492;13.434;2022-12-07T04:44:27;5.30;99.90
43338;DHT22;28933;52.492;13.434;2022-12-07T04:46:53;5.30;99.90
43338;DHT22;28933;52.492;13.434;2022-12-07T04:49:20;5.30;99.90
43338;DHT22;28933;52.492;13.434;2022-12-07T04:51:46;5.30;99.90
43338;DHT22;28933;52.492;13.434;2022-12-07T04:54:13;5.30;99.90
43338;DHT22;28933;52.492;13.434;2022-12-07T04:56:39;5.30;99.90
43338;DHT22;28933;52.492;13.434;2022-12-07T04:59:05;5.30;99.90
43338;DHT22;28933;52.492;13.434;2022-12-07T05:01:31;5.30;99.90
43338;DHT22;28933;52.492;13.434;2022-12-07T05:03:57;5.30;99.90
43338;DHT22;28933;52.492;13.434;2022-12-07T05:06:23;5.30;99.90
43338;DHT22;28933;52.492;13.434;2022-12-07T05:08:49;5.40;99.90
43338;DHT22;28933;52.492;13.434;2022-12-07T05:11:15;5.40;99.90
43338;DHT22;28933;52.492;13.434;2022-12-07T05:14:00;5.40;99.90
43338;DHT22;28933;52.492;13.434;2022-12-07T05:16:25;5.40;99.90
43338;DHT22;28933;52.492;13.434;2022-12-07T05:18:51;5.40;99.90
43338;DHT22;28933;52.492;13.434;2022-12-07T05:21:17;5.40;99.90
43338;DHT22;28933;52.492;13.434;2022-12-07T05:23:43;5.40;99.90
43338;DHT22;28933;52.492;13.434;2022-12-07T05:26:08;5.40;99.90
43338;DHT22;28933;52.492;13.434;2022-12-07T05:28:34;5.40;99.90
43338;DHT22;28933;52.492;13.434;2022-12-07T05:31:00;5.40;99.90
43338;DHT22;28933;52.492;13.434;2022-12-07T05:33:25;5.50;99.90
43338;DHT22;28933;52.492;13.434;2022-12-07T05:35:51;5.50;99.90
43338;DHT22;28933;52.492;13.434;2022-12-07T05:38:16;5.50;99.90
43338;DHT22;28933;52.492;13.434;2022-12-07T05:40:42;5.50;99.90
43338;DHT22;28933;52.492;13.434;2022-12-07T05:43:08;5.50;99.90
43338;DHT22;28933;52.492;13.434;2022-12-07T05:45:34;5.50;99.90
43338;DHT22;28933;52.492;13.434;2022-12-07T05:47:59;5.50;99.90
43338;DHT22;28933;52.492;13.434;2022-12-07T05:50:25;5.50;99.90
43338;DHT22;28933;52.492;13.434;2022-12-07T05:52:51;5.60;99.90
43338;DHT22;28933;52.492;13.434;2022-12-07T05:55:16;5.60;99.90
43338;DHT22;28933;52.492;13.434;2022-12-07T05:57:42;5.60;99.90
43338;DHT22;28933;52.492;13.434;2022-12-07T06:00:27;5.60;99.90
43338;DHT22;28933;52.492;13.434;2022-12-07T06:02:53;5.70;99.90
43338;DHT22;28933;52.492;13.434;2022-12-07T06:05:19;5.70;99.90
43338;DHT22;28933;52.492;13.434;2022-12-07T06:07:44;5.70;99.90
43338;DHT22;28933;52.492;13.434;2022-12-07T06:10:10;5.70;99.90
43338;DHT22;28933;52.492;13.434;2022-12-07T06:12:36;5.80;99.90
43338;DHT22;28933;52.492;13.434;2022-12-07T06:15:04;5.70;99.90
43338;DHT22;28933;52.492;13.434;2022-12-07T06:17:29;5.80;99.90
43338;DHT22;28933;52.492;13.434;2022-12-07T06:19:55;5.80;99.90
43338;DHT22;28933;52.492;13.434;2022-12-07T06:22:20;5.80;99.90
43338;DHT22;28933;52.492;13.434;2022-12-07T06:24:46;5.80;99.90
43338;DHT22;28933;52.492;13.434;2022-12-07T06:27:12;5.90;99.90
43338;DHT22;28933;52.492;13.434;2022-12-07T06:29:38;5.90;99.90
43338;DHT22;28933;52.492;13.434;2022-12-07T06:32:03;5.90;99.90
43338;DHT22;28933;52.492;13.434;2022-12-07T06:34:30;5.90;99.90
43338;DHT22;28933;52.492;13.434;2022-12-07T06:36:56;5.90;99.90
43338;DHT22;28933;52.492;13.434;2022-12-07T06:39:26;5.90;99.90
43338;DHT22;28933;52.492;13.434;2022-12-07T06:41:53;5.90;99.90
43338;DHT22;28933;52.492;13.434;2022-12-07T06:44:19;6.00;99.90
43338;DHT22;28933;52.492;13.434;2022-12-07T06:46:45;6.00;99.90
43338;DHT22;28933;52.492;13.434;2022-12-07T06:49:11;5.90;99.90
43338;DHT22;28933;52.492;13.434;2022-12-07T06:51:37;6.00;99.90
43338;DHT22;28933;52.492;13.434;2022-12-07T06:54:10;6.00;99.90
43338;DHT22;28933;52.492;13.434;2022-12-07T06:56:36;6.00;99.90
43338;DHT22;28933;52.492;13.434;2022-12-07T06:59:02;6.00;99.90
43338;DHT22;28933;52.492;13.434;2022-12-07T07:01:28;6.10;99.90
43338;DHT22;28933;52.492;13.434;2022-12-07T07:03:54;6.10;99.90
43338;DHT22;28933;52.492;13.434;2022-12-07T07:06:19;6.10;99.90
43338;DHT22;28933;52.492;13.434;2022-12-07T07:08:45;6.10;99.90
43338;DHT22;28933;52.492;13.434;2022-12-07T07:11:10;6.20;99.90
43338;DHT22;28933;52.492;13.434;2022-12-07T07:13:36;6.10;99.90
43338;DHT22;28933;52.492;13.434;2022-12-07T07:16:02;6.10;99.90
43338;DHT22;28933;52.492;13.434;2022-12-07T07:18:28;6.20;99.90
43338;DHT22;28933;52.492;13.434;2022-12-07T07:20:54;6.20;99.90
43338;DHT22;28933;52.492;13.434;2022-12-07T07:23:21;6.30;99.90
43338;DHT22;28933;52.492;13.434;2022-12-07T07:25:47;6.30;99.90
43338;DHT22;28933;52.492;13.434;2022-12-07T07:28:12;6.30;99.90
43338;DHT22;28933;52.492;13.434;2022-12-07T07:30:38;6.20;99.90
43338;DHT22;28933;52.492;13.434;2022-12-07T07:33:04;6.20;99.90
43338;DHT22;28933;52.492;13.434;2022-12-07T07:35:31;6.30;99.90
43338;DHT22;28933;52.492;13.434;2022-12-07T07:37:57;6.30;99.90
43338;DHT22;28933;52.492;13.434;2022-12-07T07:40:23;6.30;99.90
43338;DHT22;28933;52.492;13.434;2022-12-07T07:42:51;6.30;99.90
43338;DHT22;28933;52.492;13.434;2022-12-07T07:45:18;6.30;99.90
43338;DHT22;28933;52.492;13.434;2022-12-07T07:47:44;6.30;99.90
43338;DHT22;28933;52.492;13.434;2022-12-07T07:50:10;6.20;99.90
43338;DHT22;28933;52.492;13.434;2022-12-07T07:52:35;6.30;99.90
43338;DHT22;28933;52.492;13.434;2022-12-07T07:55:01;6.30;99.90
43338;DHT22;28933;52.492;13.434;2022-12-07T07:57:27;6.30;99.90
43338;DHT22;28933;52.492;13.434;2022-12-07T07:59:53;6.20;99.90
43338;DHT22;28933;52.492;13.434;2022-12-07T08:02:20;6.20;99.90
43338;DHT22;28933;52.492;13.434;2022-12-07T08:04:46;6.30;99.90
43338;DHT22;28933;52.492;13.434;2022-12-07T08:07:12;6.30;99.90
43338;DHT22;28933;52.492;13.434;2022-12-07T08:09:38;6.30;99.90
43338;DHT22;28933;52.492;13.434;2022-12-07T08:12:04;6.30;99.90
43338;DHT22;28933;52.492;13.434;2022-12-07T08:14:30;6.30;99.90
43338;DHT22;28933;52.492;13.434;2022-12-07T08:16:56;6.30;99.90
43338;DHT22;28933;52.492;13.434;2022-12-07T08:19:22;6.30;99.90
43338;DHT22;28933;52.492;13.434;2022-12-07T08:21:47;6.20;99.90
43338;DHT22;28933;52.492;13.434;2022-12-07T08:24:13;6.30;99.90
43338;DHT22;28933;52.492;13.434;2022-12-07T08:26:40;6.20;99.90
43338;DHT22;28933;52.492;13.434;2022-12-07T08:29:05;6.30;99.90
43338;DHT22;28933;52.492;13.434;2022-12-07T08:31:31;6.30;99.90
43338;DHT22;28933;52.492;13.434;2022-12-07T08:33:57;6.30;99.90
43338;DHT22;28933;52.492;13.434;2022-12-07T08:36:23;6.30;99.90
43338;DHT22;28933;52.492;13.434;2022-12-07T08:38:49;6.30;99.90
43338;DHT22;28933;52.492;13.434;2022-12-07T08:41:15;6.30;99.90
43338;DHT22;28933;52.492;13.434;2022-12-07T08:43:41;6.30;99.90
43338;DHT22;28933;52.492;13.434;2022-12-07T08:46:10;6.40;99.90
43338;DHT22;28933;52.492;13.434;2022-12-07T08:49:22;6.40;99.90
43338;DHT22;28933;52.492;13.434;2022-12-07T08:51:28;6.30;99.90
43338;DHT22;28933;52.492;13.434;2022-12-07T08:53:55;6.30;99.90
43338;DHT22;28933;52.492;13.434;2022-12-07T08:56:21;6.40;99.90
43338;DHT22;28933;52.492;13.434;2022-12-07T08:58:48;6.40;99.90
43338;DHT22;28933;52.492;13.434;2022-12-07T09:01:14;6.40;99.90
43338;DHT22;28933;52.492;13.434;2022-12-07T09:03:40;6.40;99.90
43338;DHT22;28933;52.492;13.434;2022-12-07T09:06:05;6.40;99.90
43338;DHT22;28933;52.492;13.434;2022-12-07T09:08:36;6.50;99.90
43338;DHT22;28933;52.492;13.434;2022-12-07T09:11:03;6.50;99.90
43338;DHT22;28933;52.492;13.434;2022-12-07T09:13:28;6.50;99.90
43338;DHT22;28933;52.492;13.434;2022-12-07T09:15:54;6.50;99.90
43338;DHT22;28933;52.492;13.434;2022-12-07T09:18:20;6.50;99.90
43338;DHT22;28933;52.492;13.434;2022-12-07T09:20:45;6.50;99.90
43338;DHT22;28933;52.492;13.434;2022-12-07T09:23:11;6.50;99.90
43338;DHT22;28933;52.492;13.434;2022-12-07T09:25:37;6.50;99.30
43338;DHT22;28933;52.492;13.434;2022-12-07T09:28:02;6.40;99.20
43338;DHT22;28933;52.492;13.434;2022-12-07T09:30:28;6.40;99.10
43338;DHT22;28933;52.492;13.434;2022-12-07T09:32:55;6.40;98.60
43338;DHT22;28933;52.492;13.434;2022-12-07T09:35:22;6.30;98.40
43338;DHT22;28933;52.492;13.434;2022-12-07T09:37:48;6.20;98.70
43338;DHT22;28933;52.492;13.434;2022-12-07T09:40:15;6.20;98.70
43338;DHT22;28933;52.492;13.434;2022-12-07T09:42:45;6.20;98.70
43338;DHT22;28933;52.492;13.434;2022-12-07T09:45:15;6.20;98.80
43338;DHT22;28933;52.492;13.434;2022-12-07T09:47:42;6.10;98.30
43338;DHT22;28933;52.492;13.434;2022-12-07T09:50:14;6.10;98.60
43338;DHT22;28933;52.492;13.434;2022-12-07T09:52:40;6.10;98.60
43338;DHT22;28933;52.492;13.434;2022-12-07T09:55:24;6.00;98.70
43338;DHT22;28933;52.492;13.434;2022-12-07T09:57:52;6.00;98.50
43338;DHT22;28933;52.492;13.434;2022-12-07T10:00:21;6.10;98.70
43338;DHT22;28933;52.492;13.434;2022-12-07T10:02:56;6.00;98.40
43338;DHT22;28933;52.492;13.434;2022-12-07T10:05:26;5.90;98.20
43338;DHT22;28933;52.492;13.434;2022-12-07T10:07:53;5.90;98.30
43338;DHT22;28933;52.492;13.434;2022-12-07T10:10:29;5.90;98.10
43338;DHT22;28933;52.492;13.434;2022-12-07T10:13:04;5.80;97.80
43338;DHT22;28933;52.492;13.434;2022-12-07T10:15:53;5.80;98.00
43338;DHT22;28933;52.492;13.434;2022-12-07T10:18:41;5.80;98.20
43338;DHT22;28933;52.492;13.434;2022-12-07T10:21:17;5.70;98.20
43338;DHT22;28933;52.492;13.434;2022-12-07T10:24:05;5.70;98.30
43338;DHT22;28933;52.492;13.434;2022-12-07T10:26:38;5.80;98.30
43338;DHT22;28933;52.492;13.434;2022-12-07T10:31:58;5.80;98.70
43338;DHT22;28933;52.492;13.434;2022-12-07T10:34:29;5.90;98.40
43338;DHT22;28933;52.492;13.434;2022-12-07T10:39:42;5.80;98.20
43338;DHT22;28933;52.492;13.434;2022-12-07T10:42:26;5.80;98.40
43338;DHT22;28933;52.492;13.434;2022-12-07T10:47:55;5.80;98.50
43338;DHT22;28933;52.492;13.434;2022-12-07T10:53:45;5.80;98.60
43338;DHT22;28933;52.492;13.434;2022-12-07T11:04:58;5.90;98.60
43338;DHT22;28933;52.492;13.434;2022-12-07T11:08:13;5.90;98.60
43338;DHT22;28933;52.492;13.434;2022-12-07T11:14:06;6.00;98.70
43338;DHT22;28933;52.492;13.434;2022-12-07T11:19:54;6.00;98.80
43338;DHT22;28933;52.492;13.434;2022-12-07T11:31:02;6.20;99.00
43338;DHT22;28933;52.492;13.434;2022-12-07T11:33:41;6.30;98.90
43338;DHT22;28933;52.492;13.434;2022-12-07T11:36:41;6.30;98.90
43338;DHT22;28933;52.492;13.434;2022-12-07T11:39:33;6.30;98.90
43338;DHT22;28933;52.492;13.434;2022-12-07T11:42:24;6.30;98.80
43338;DHT22;28933;52.492;13.434;2022-12-07T11:47:39;6.40;98.80
43338;DHT22;28933;52.492;13.434;2022-12-07T11:55:24;6.50;98.70
43338;DHT22;28933;52.492;13.434;2022-12-07T11:58:01;6.50;98.70
43338;DHT22;28933;52.492;13.434;2022-12-07T12:00:28;6.50;98.70
43338;DHT22;28933;52.492;13.434;2022-12-07T12:03:09;6.60;98.80
43338;DHT22;28933;52.492;13.434;2022-12-07T12:05:36;6.60;98.80
43338;DHT22;28933;52.492;13.434;2022-12-07T12:08:17;6.70;98.80
43338;DHT22;28933;52.492;13.434;2022-12-07T12:10:55;6.70;98.80
43338;DHT22;28933;52.492;13.434;2022-12-07T12:21:08;6.80;98.70
43338;DHT22;28933;52.492;13.434;2022-12-07T12:23:44;6.90;98.70
43338;DHT22;28933;52.492;13.434;2022-12-07T12:26:23;6.90;98.70
43338;DHT22;28933;52.492;13.434;2022-12-07T12:29:00;6.90;98.60
43338;DHT22;28933;52.492;13.434;2022-12-07T12:33:56;6.90;98.60
43338;DHT22;28933;52.492;13.434;2022-12-07T12:50:20;7.00;98.50
43338;DHT22;28933;52.492;13.434;2022-12-07T12:52:51;7.00;98.50
43338;DHT22;28933;52.492;13.434;2022-12-07T12:55:19;7.00;98.40
43338;DHT22;28933;52.492;13.434;2022-12-07T13:00:46;7.10;98.50
43338;DHT22;28933;52.492;13.434;2022-12-07T13:03:29;7.10;98.40
43338;DHT22;28933;52.492;13.434;2022-12-07T13:08:53;7.10;98.40
43338;DHT22;28933;52.492;13.434;2022-12-07T13:11:34;7.10;98.40
43338;DHT22;28933;52.492;13.434;2022-12-07T13:20:07;7.10;98.40
43338;DHT22;28933;52.492;13.434;2022-12-07T13:27:50;7.10;98.40
43338;DHT22;28933;52.492;13.434;2022-12-07T13:30:20;7.00;98.60
43338;DHT22;28933;52.492;13.434;2022-12-07T13:32:53;7.00;98.40
43338;DHT22;28933;52.492;13.434;2022-12-07T13:35:34;7.00;98.40
43338;DHT22;28933;52.492;13.434;2022-12-07T13:38:21;7.00;98.30
43338;DHT22;28933;52.492;13.434;2022-12-07T13:41:11;7.10;98.40
43338;DHT22;28933;52.492;13.434;2022-12-07T13:43:51;7.00;98.40
43338;DHT22;28933;52.492;13.434;2022-12-07T13:46:20;7.00;98.40
43338;DHT22;28933;52.492;13.434;2022-12-07T13:48:50;7.00;98.50
43338;DHT22;28933;52.492;13.434;2022-12-07T13:51:36;7.00;98.40
43338;DHT22;28933;52.492;13.434;2022-12-07T13:54:10;7.00;98.40
43338;DHT22;28933;52.492;13.434;2022-12-07T13:56:36;7.00;98.40
43338;DHT22;28933;52.492;13.434;2022-12-07T13:59:03;7.00;98.40
43338;DHT22;28933;52.492;13.434;2022-12-07T14:01:31;6.90;98.70
43338;DHT22;28933;52.492;13.434;2022-12-07T14:04:37;7.00;98.50
43338;DHT22;28933;52.492;13.434;2022-12-07T14:07:23;7.00;98.50
43338;DHT22;28933;52.492;13.434;2022-12-07T14:10:02;7.00;98.50
43338;DHT22;28933;52.492;13.434;2022-12-07T14:12:30;7.00;98.40
43338;DHT22;28933;52.492;13.434;2022-12-07T14:14:57;7.00;98.40
43338;DHT22;28933;52.492;13.434;2022-12-07T14:17:25;7.00;98.40
43338;DHT22;28933;52.492;13.434;2022-12-07T14:20:03;7.10;98.40
43338;DHT22;28933;52.492;13.434;2022-12-07T14:22:34;7.00;98.20
43338;DHT22;28933;52.492;13.434;2022-12-07T14:27:59;6.90;98.30
43338;DHT22;28933;52.492;13.434;2022-12-07T14:30:33;6.90;98.20
43338;DHT22;28933;52.492;13.434;2022-12-07T14:33:02;6.90;98.30
43338;DHT22;28933;52.492;13.434;2022-12-07T14:35:29;6.80;98.20
43338;DHT22;28933;52.492;13.434;2022-12-07T14:37:55;6.90;98.30
43338;DHT22;28933;52.492;13.434;2022-12-07T14:40:26;6.80;98.20
43338;DHT22;28933;52.492;13.434;2022-12-07T14:43:01;6.80;98.30
43338;DHT22;28933;52.492;13.434;2022-12-07T14:45:28;6.80;98.40
43338;DHT22;28933;52.492;13.434;2022-12-07T14:47:54;6.80;98.40
43338;DHT22;28933;52.492;13.434;2022-12-07T14:50:20;6.80;98.40
43338;DHT22;28933;52.492;13.434;2022-12-07T14:52:51;6.80;98.50
43338;DHT22;28933;52.492;13.434;2022-12-07T14:55:26;6.70;98.40
43338;DHT22;28933;52.492;13.434;2022-12-07T14:57:52;6.70;98.50
43338;DHT22;28933;52.492;13.434;2022-12-07T15:00:19;6.60;98.40
43338;DHT22;28933;52.492;13.434;2022-12-07T15:02:46;6.60;98.50
43338;DHT22;28933;52.492;13.434;2022-12-07T15:05:12;6.60;98.50
43338;DHT22;28933;52.492;13.434;2022-12-07T15:07:39;6.50;98.50
43338;DHT22;28933;52.492;13.434;2022-12-07T15:10:05;6.50;98.50
43338;DHT22;28933;52.492;13.434;2022-12-07T15:12:31;6.50;98.60
43338;DHT22;28933;52.492;13.434;2022-12-07T15:14:57;6.50;98.50
43338;DHT22;28933;52.492;13.434;2022-12-07T15:17:22;6.40;98.50
43338;DHT22;28933;52.492;13.434;2022-12-07T15:19:48;6.40;98.60
43338;DHT22;28933;52.492;13.434;2022-12-07T15:22:13;6.40;98.60
43338;DHT22;28933;52.492;13.434;2022-12-07T15:24:39;6.30;98.60
43338;DHT22;28933;52.492;13.434;2022-12-07T15:27:05;6.30;98.60
43338;DHT22;28933;52.492;13.434;2022-12-07T15:29:30;6.20;98.60
43338;DHT22;28933;52.492;13.434;2022-12-07T15:31:56;6.20;98.70
43338;DHT22;28933;52.492;13.434;2022-12-07T15:34:23;6.20;98.70
43338;DHT22;28933;52.492;13.434;2022-12-07T15:36:49;6.20;98.70
43338;DHT22;28933;52.492;13.434;2022-12-07T15:39:15;6.10;98.70
43338;DHT22;28933;52.492;13.434;2022-12-07T15:41:40;6.10;98.90
43338;DHT22;28933;52.492;13.434;2022-12-07T15:44:06;6.10;98.80
43338;DHT22;28933;52.492;13.434;2022-12-07T15:46:50;6.10;98.80
43338;DHT22;28933;52.492;13.434;2022-12-07T15:49:18;6.10;98.90
43338;DHT22;28933;52.492;13.434;2022-12-07T15:51:44;6.10;98.90
43338;DHT22;28933;52.492;13.434;2022-12-07T15:56:44;6.10;98.90
43338;DHT22;28933;52.492;13.434;2022-12-07T15:59:09;6.10;99.00
43338;DHT22;28933;52.492;13.434;2022-12-07T16:01:35;6.10;99.00
43338;DHT22;28933;52.492;13.434;2022-12-07T16:04:00;6.10;99.00
43338;DHT22;28933;52.492;13.434;2022-12-07T16:06:26;6.10;99.00
43338;DHT22;28933;52.492;13.434;2022-12-07T16:08:52;6.10;99.00
43338;DHT22;28933;52.492;13.434;2022-12-07T16:11:18;6.20;99.00
43338;DHT22;28933;52.492;13.434;2022-12-07T16:13:43;6.20;99.00
43338;DHT22;28933;52.492;13.434;2022-12-07T16:16:14;6.10;98.90
43338;DHT22;28933;52.492;13.434;2022-12-07T16:18:42;6.20;99.00
43338;DHT22;28933;52.492;13.434;2022-12-07T16:21:07;6.10;99.00
43338;DHT22;28933;52.492;13.434;2022-12-07T16:23:33;6.10;99.00
43338;DHT22;28933;52.492;13.434;2022-12-07T16:26:25;6.10;99.00
43338;DHT22;28933;52.492;13.434;2022-12-07T16:28:52;6.00;99.00
43338;DHT22;28933;52.492;13.434;2022-12-07T16:31:21;6.00;98.90
43338;DHT22;28933;52.492;13.434;2022-12-07T16:33:47;6.00;98.90
43338;DHT22;28933;52.492;13.434;2022-12-07T16:36:14;5.90;98.90
43338;DHT22;28933;52.492;13.434;2022-12-07T16:38:41;5.90;98.90
43338;DHT22;28933;52.492;13.434;2022-12-07T16:41:08;5.90;98.90
43338;DHT22;28933;52.492;13.434;2022-12-07T16:43:34;5.90;99.00
43338;DHT22;28933;52.492;13.434;2022-12-07T16:46:00;5.80;99.00
43338;DHT22;28933;52.492;13.434;2022-12-07T16:48:26;5.80;99.10
43338;DHT22;28933;52.492;13.434;2022-12-07T16:50:51;5.80;99.10
43338;DHT22;28933;52.492;13.434;2022-12-07T16:53:20;5.70;99.10
43338;DHT22;28933;52.492;13.434;2022-12-07T16:55:46;5.70;99.10
43338;DHT22;28933;52.492;13.434;2022-12-07T16:58:16;5.70;99.10
43338;DHT22;28933;52.492;13.434;2022-12-07T17:00:44;5.70;99.10
43338;DHT22;28933;52.492;13.434;2022-12-07T17:03:10;5.70;99.10
43338;DHT22;28933;52.492;13.434;2022-12-07T17:05:41;5.70;99.10
43338;DHT22;28933;52.492;13.434;2022-12-07T17:08:07;5.60;99.10
43338;DHT22;28933;52.492;13.434;2022-12-07T17:10:35;5.60;99.10
43338;DHT22;28933;52.492;13.434;2022-12-07T17:13:02;5.50;99.10
43338;DHT22;28933;52.492;13.434;2022-12-07T17:15:55;5.50;99.10
43338;DHT22;28933;52.492;13.434;2022-12-07T17:18:21;5.50;99.10
43338;DHT22;28933;52.492;13.434;2022-12-07T17:20:47;5.50;99.20
43338;DHT22;28933;52.492;13.434;2022-12-07T17:23:12;5.40;99.20
43338;DHT22;28933;52.492;13.434;2022-12-07T17:25:38;5.40;99.20
43338;DHT22;28933;52.492;13.434;2022-12-07T17:28:03;5.40;99.20
43338;DHT22;28933;52.492;13.434;2022-12-07T17:30:29;5.30;99.20
43338;DHT22;28933;52.492;13.434;2022-12-07T17:32:55;5.40;99.20
43338;DHT22;28933;52.492;13.434;2022-12-07T17:35:20;5.40;99.20
43338;DHT22;28933;52.492;13.434;2022-12-07T17:37:46;5.30;99.10
43338;DHT22;28933;52.492;13.434;2022-12-07T17:40:13;5.30;99.10
43338;DHT22;28933;52.492;13.434;2022-12-07T17:42:38;5.30;99.20
43338;DHT22;28933;52.492;13.434;2022-12-07T17:45:09;5.30;99.10
43338;DHT22;28933;52.492;13.434;2022-12-07T17:47:38;5.30;99.20
43338;DHT22;28933;52.492;13.434;2022-12-07T17:50:05;5.30;99.20
43338;DHT22;28933;52.492;13.434;2022-12-07T17:52:31;5.20;99.10
43338;DHT22;28933;52.492;13.434;2022-12-07T17:55:16;5.20;99.10
43338;DHT22;28933;52.492;13.434;2022-12-07T17:57:42;5.20;99.20